sensor_id;sensor_type;location;lat;lon;timestamp;P1;durP1;ratioP1;P2;durP2;ratioP2
9072;SDS011;4572;41.642;25.370;2023-03-13T00:00:47;1.10;;;1.00;;
9072;SDS011;4572;41.642;25.370;2023-03-13T00:03:12;1.00;;;1.00;;
9072;SDS011;4572;41.642;25.370;2023-03-13T00:05:38;0.97;;;0.90;;
9072;SDS011;4572;41.642;25.370;2023-03-13T00:08:03;0.87;;;0.87;;
9072;SDS011;4572;41.642;25.370;2023-03-13T00:10:29;0.90;;;0.90;;
9072;SDS011;4572;41.642;25.370;2023-03-13T00:12:54;1.83;;;0.80;;
9072;SDS011;4572;41.642;25.370;2023-03-13T00:15:20;0.90;;;0.90;;
9072;SDS011;4572;41.642;25.370;2023-03-13T00:17:45;0.90;;;0.90;;
9072;SDS011;4572;41.642;25.370;2023-03-13T00:20:11;0.70;;;0.70;;
9072;SDS011;4572;41.642;25.370;2023-03-13T00:22:36;0.87;;;0.87;;
9072;SDS011;4572;41.642;25.370;2023-03-13T00:25:02;1.07;;;1.00;;
9072;SDS011;4572;41.642;25.370;2023-03-13T00:27:31;1.60;;;1.20;;
9072;SDS011;4572;41.642;25.370;2023-03-13T00:29:57;0.90;;;0.80;;
9072;SDS011;4572;41.642;25.370;2023-03-13T00:32:23;1.07;;;0.90;;
9072;SDS011;4572;41.642;25.370;2023-03-13T00:34:48;0.80;;;0.80;;
9072;SDS011;4572;41.642;25.370;2023-03-13T00:37:13;0.97;;;0.93;;
9072;SDS011;4572;41.642;25.370;2023-03-13T00:39:39;0.63;;;0.63;;
9072;SDS011;4572;41.642;25.370;2023-03-13T00:42:04;0.97;;;0.97;;
9072;SDS011;4572;41.642;25.370;2023-03-13T00:44:30;1.73;;;1.27;;
9072;SDS011;4572;41.642;25.370;2023-03-13T00:46:55;0.90;;;0.90;;
9072;SDS011;4572;41.642;25.370;2023-03-13T00:49:21;0.93;;;0.70;;
9072;SDS011;4572;41.642;25.370;2023-03-13T00:51:46;0.90;;;0.90;;
9072;SDS011;4572;41.642;25.370;2023-03-13T00:54:13;1.00;;;0.60;;
9072;SDS011;4572;41.642;25.370;2023-03-13T00:56:38;0.90;;;0.90;;
9072;SDS011;4572;41.642;25.370;2023-03-13T00:59:04;1.43;;;1.33;;
9072;SDS011;4572;41.642;25.370;2023-03-13T01:01:33;1.20;;;1.10;;
9072;SDS011;4572;41.642;25.370;2023-03-13T01:04:00;2.00;;;1.30;;
9072;SDS011;4572;41.642;25.370;2023-03-13T01:06:28;1.00;;;1.00;;
9072;SDS011;4572;41.642;25.370;2023-03-13T01:08:55;1.40;;;1.13;;
9072;SDS011;4572;41.642;25.370;2023-03-13T01:11:22;1.33;;;1.23;;
9072;SDS011;4572;41.642;25.370;2023-03-13T01:13:52;2.17;;;1.00;;
9072;SDS011;4572;41.642;25.370;2023-03-13T01:16:19;0.80;;;0.80;;
9072;SDS011;4572;41.642;25.370;2023-03-13T01:18:52;0.90;;;0.73;;
9072;SDS011;4572;41.642;25.370;2023-03-13T01:21:20;2.23;;;0.83;;
9072;SDS011;4572;41.642;25.370;2023-03-13T01:23:47;1.00;;;1.00;;
9072;SDS011;4572;41.642;25.370;2023-03-13T01:26:13;1.07;;;0.97;;
9072;SDS011;4572;41.642;25.370;2023-03-13T01:28:38;2.50;;;1.23;;
9072;SDS011;4572;41.642;25.370;2023-03-13T01:31:11;2.80;;;1.60;;
9072;SDS011;4572;41.642;25.370;2023-03-13T01:33:38;2.33;;;1.50;;
9072;SDS011;4572;41.642;25.370;2023-03-13T01:36:03;1.40;;;1.30;;
9072;SDS011;4572;41.642;25.370;2023-03-13T01:38:29;1.03;;;0.93;;
9072;SDS011;4572;41.642;25.370;2023-03-13T01:40:54;0.90;;;0.90;;
9072;SDS011;4572;41.642;25.370;2023-03-13T01:43:21;1.93;;;1.30;;
9072;SDS011;4572;41.642;25.370;2023-03-13T01:59:18;1.30;;;1.20;;
9072;SDS011;4572;41.642;25.370;2023-03-13T02:01:47;1.30;;;1.00;;
9072;SDS011;4572;41.642;25.370;2023-03-13T02:04:14;1.83;;;1.50;;
9072;SDS011;4572;41.642;25.370;2023-03-13T02:06:40;2.23;;;1.23;;
9072;SDS011;4572;41.642;25.370;2023-03-13T02:09:09;0.90;;;0.90;;
9072;SDS011;4572;41.642;25.370;2023-03-13T02:11:47;1.20;;;1.10;;
9072;SDS011;4572;41.642;25.370;2023-03-13T02:14:19;1.03;;;0.93;;
9072;SDS011;4572;41.642;25.370;2023-03-13T02:16:46;1.40;;;0.97;;
9072;SDS011;4572;41.642;25.370;2023-03-13T02:19:20;2.17;;;1.67;;
9072;SDS011;4572;41.642;25.370;2023-03-13T02:22:04;1.47;;;1.30;;
9072;SDS011;4572;41.642;25.370;2023-03-13T02:24:47;1.43;;;1.30;;
9072;SDS011;4572;41.642;25.370;2023-03-13T02:27:25;1.03;;;1.03;;
9072;SDS011;4572;41.642;25.370;2023-03-13T02:29:50;2.13;;;1.43;;
9072;SDS011;4572;41.642;25.370;2023-03-13T02:32:17;1.27;;;1.17;;
9072;SDS011;4572;41.642;25.370;2023-03-13T02:34:43;1.30;;;1.20;;
9072;SDS011;4572;41.642;25.370;2023-03-13T02:37:09;2.60;;;1.20;;
9072;SDS011;4572;41.642;25.370;2023-03-13T02:39:37;0.90;;;0.90;;
9072;SDS011;4572;41.642;25.370;2023-03-13T02:42:06;1.30;;;1.20;;
9072;SDS011;4572;41.642;25.370;2023-03-13T02:44:36;2.30;;;1.07;;
9072;SDS011;4572;41.642;25.370;2023-03-13T02:47:02;2.00;;;1.50;;
9072;SDS011;4572;41.642;25.370;2023-03-13T02:49:28;1.73;;;1.40;;
9072;SDS011;4572;41.642;25.370;2023-03-13T02:51:58;1.40;;;1.30;;
9072;SDS011;4572;41.642;25.370;2023-03-13T02:54:34;1.53;;;1.43;;
9072;SDS011;4572;41.642;25.370;2023-03-13T02:57:02;1.60;;;1.27;;
9072;SDS011;4572;41.642;25.370;2023-03-13T02:59:28;1.30;;;1.20;;
9072;SDS011;4572;41.642;25.370;2023-03-13T03:01:54;1.30;;;1.20;;
9072;SDS011;4572;41.642;25.370;2023-03-13T03:04:20;1.80;;;1.37;;
9072;SDS011;4572;41.642;25.370;2023-03-13T03:06:47;1.63;;;1.43;;
9072;SDS011;4572;41.642;25.370;2023-03-13T03:09:13;1.43;;;1.27;;
9072;SDS011;4572;41.642;25.370;2023-03-13T03:11:39;1.87;;;1.60;;
9072;SDS011;4572;41.642;25.370;2023-03-13T03:14:04;1.40;;;1.30;;
9072;SDS011;4572;41.642;25.370;2023-03-13T03:16:30;1.00;;;1.00;;
9072;SDS011;4572;41.642;25.370;2023-03-13T03:18:55;1.43;;;1.33;;
9072;SDS011;4572;41.642;25.370;2023-03-13T03:21:21;1.70;;;1.20;;
9072;SDS011;4572;41.642;25.370;2023-03-13T03:23:48;1.60;;;1.50;;
9072;SDS011;4572;41.642;25.370;2023-03-13T03:26:14;2.10;;;1.60;;
9072;SDS011;4572;41.642;25.370;2023-03-13T03:28:39;1.87;;;1.20;;
9072;SDS011;4572;41.642;25.370;2023-03-13T03:31:05;1.47;;;1.37;;
9072;SDS011;4572;41.642;25.370;2023-03-13T03:33:32;1.70;;;1.50;;
9072;SDS011;4572;41.642;25.370;2023-03-13T03:36:02;2.93;;;1.57;;
9072;SDS011;4572;41.642;25.370;2023-03-13T03:38:29;1.50;;;1.40;;
9072;SDS011;4572;41.642;25.370;2023-03-13T03:40:55;1.20;;;1.10;;
9072;SDS011;4572;41.642;25.370;2023-03-13T03:43:20;1.90;;;1.80;;
9072;SDS011;4572;41.642;25.370;2023-03-13T03:45:46;2.00;;;1.50;;
9072;SDS011;4572;41.642;25.370;2023-03-13T03:48:12;2.03;;;1.40;;
9072;SDS011;4572;41.642;25.370;2023-03-13T03:50:37;1.13;;;1.03;;
9072;SDS011;4572;41.642;25.370;2023-03-13T03:53:04;2.10;;;1.40;;
9072;SDS011;4572;41.642;25.370;2023-03-13T03:55:30;1.07;;;0.93;;
9072;SDS011;4572;41.642;25.370;2023-03-13T03:57:55;1.90;;;1.73;;
9072;SDS011;4572;41.642;25.370;2023-03-13T04:00:20;1.50;;;1.40;;
9072;SDS011;4572;41.642;25.370;2023-03-13T04:02:46;2.00;;;1.43;;
9072;SDS011;4572;41.642;25.370;2023-03-13T04:05:11;0.73;;;0.73;;
9072;SDS011;4572;41.642;25.370;2023-03-13T04:07:37;2.63;;;1.40;;
9072;SDS011;4572;41.642;25.370;2023-03-13T04:10:03;1.53;;;1.27;;
9072;SDS011;4572;41.642;25.370;2023-03-13T04:12:29;3.43;;;1.47;;
9072;SDS011;4572;41.642;25.370;2023-03-13T04:14:55;3.03;;;2.33;;
9072;SDS011;4572;41.642;25.370;2023-03-13T04:17:20;1.40;;;1.30;;
9072;SDS011;4572;41.642;25.370;2023-03-13T04:19:45;2.13;;;1.93;;
9072;SDS011;4572;41.642;25.370;2023-03-13T04:22:11;1.50;;;1.40;;
9072;SDS011;4572;41.642;25.370;2023-03-13T04:24:36;1.20;;;1.10;;
9072;SDS011;4572;41.642;25.370;2023-03-13T04:27:02;2.53;;;1.70;;
9072;SDS011;4572;41.642;25.370;2023-03-13T04:29:30;2.23;;;1.50;;
9072;SDS011;4572;41.642;25.370;2023-03-13T04:31:56;1.57;;;1.47;;
9072;SDS011;4572;41.642;25.370;2023-03-13T04:34:22;2.73;;;1.43;;
9072;SDS011;4572;41.642;25.370;2023-03-13T04:36:47;1.37;;;1.27;;
9072;SDS011;4572;41.642;25.370;2023-03-13T04:39:13;2.03;;;1.60;;
9072;SDS011;4572;41.642;25.370;2023-03-13T04:41:38;1.47;;;1.37;;
9072;SDS011;4572;41.642;25.370;2023-03-13T04:44:04;2.20;;;1.43;;
9072;SDS011;4572;41.642;25.370;2023-03-13T04:46:29;1.50;;;1.40;;
9072;SDS011;4572;41.642;25.370;2023-03-13T04:48:55;1.47;;;1.37;;
9072;SDS011;4572;41.642;25.370;2023-03-13T04:51:20;0.77;;;0.77;;
9072;SDS011;4572;41.642;25.370;2023-03-13T04:53:46;1.27;;;1.17;;
9072;SDS011;4572;41.642;25.370;2023-03-13T04:56:11;1.43;;;1.10;;
9072;SDS011;4572;41.642;25.370;2023-03-13T04:58:47;1.47;;;1.37;;
9072;SDS011;4572;41.642;25.370;2023-03-13T05:01:13;1.30;;;1.20;;
9072;SDS011;4572;41.642;25.370;2023-03-13T05:03:38;1.10;;;1.07;;
9072;SDS011;4572;41.642;25.370;2023-03-13T05:06:03;1.77;;;1.50;;
9072;SDS011;4572;41.642;25.370;2023-03-13T05:08:29;1.33;;;1.23;;
9072;SDS011;4572;41.642;25.370;2023-03-13T05:10:54;1.80;;;1.40;;
9072;SDS011;4572;41.642;25.370;2023-03-13T05:13:20;0.70;;;0.70;;
9072;SDS011;4572;41.642;25.370;2023-03-13T05:15:45;4.50;;;2.37;;
9072;SDS011;4572;41.642;25.370;2023-03-13T05:18:11;3.10;;;1.77;;
9072;SDS011;4572;41.642;25.370;2023-03-13T05:20:37;3.93;;;2.20;;
9072;SDS011;4572;41.642;25.370;2023-03-13T05:23:02;2.17;;;1.83;;
9072;SDS011;4572;41.642;25.370;2023-03-13T05:25:28;0.80;;;0.80;;
9072;SDS011;4572;41.642;25.370;2023-03-13T05:27:53;2.47;;;1.47;;
9072;SDS011;4572;41.642;25.370;2023-03-13T05:30:19;1.00;;;1.00;;
9072;SDS011;4572;41.642;25.370;2023-03-13T05:32:45;1.10;;;1.10;;
9072;SDS011;4572;41.642;25.370;2023-03-13T05:35:10;1.40;;;1.27;;
9072;SDS011;4572;41.642;25.370;2023-03-13T05:37:36;1.27;;;1.10;;
9072;SDS011;4572;41.642;25.370;2023-03-13T05:40:01;1.50;;;1.40;;
9072;SDS011;4572;41.642;25.370;2023-03-13T05:42:27;1.60;;;1.23;;
9072;SDS011;4572;41.642;25.370;2023-03-13T05:44:53;2.17;;;1.77;;
9072;SDS011;4572;41.642;25.370;2023-03-13T05:47:18;3.70;;;1.60;;
9072;SDS011;4572;41.642;25.370;2023-03-13T05:49:44;1.33;;;1.23;;
9072;SDS011;4572;41.642;25.370;2023-03-13T05:52:09;1.77;;;1.50;;
9072;SDS011;4572;41.642;25.370;2023-03-13T05:54:34;1.30;;;1.20;;
9072;SDS011;4572;41.642;25.370;2023-03-13T05:57:00;1.90;;;1.40;;
9072;SDS011;4572;41.642;25.370;2023-03-13T05:59:26;1.27;;;1.10;;
9072;SDS011;4572;41.642;25.370;2023-03-13T06:01:51;1.07;;;1.00;;
9072;SDS011;4572;41.642;25.370;2023-03-13T06:04:17;1.03;;;0.93;;
9072;SDS011;4572;41.642;25.370;2023-03-13T06:06:42;1.50;;;1.40;;
9072;SDS011;4572;41.642;25.370;2023-03-13T06:09:08;1.57;;;1.47;;
9072;SDS011;4572;41.642;25.370;2023-03-13T06:11:35;0.77;;;0.77;;
9072;SDS011;4572;41.642;25.370;2023-03-13T06:14:01;1.10;;;0.83;;
9072;SDS011;4572;41.642;25.370;2023-03-13T06:16:27;1.27;;;1.17;;
9072;SDS011;4572;41.642;25.370;2023-03-13T06:18:52;1.27;;;1.20;;
9072;SDS011;4572;41.642;25.370;2023-03-13T06:21:17;1.83;;;1.10;;
9072;SDS011;4572;41.642;25.370;2023-03-13T06:23:43;1.17;;;0.97;;
9072;SDS011;4572;41.642;25.370;2023-03-13T06:26:09;1.17;;;1.13;;
9072;SDS011;4572;41.642;25.370;2023-03-13T06:28:34;1.47;;;1.37;;
9072;SDS011;4572;41.642;25.370;2023-03-13T06:31:00;1.33;;;1.23;;
9072;SDS011;4572;41.642;25.370;2023-03-13T06:33:27;1.57;;;1.10;;
9072;SDS011;4572;41.642;25.370;2023-03-13T06:35:53;1.10;;;1.00;;
9072;SDS011;4572;41.642;25.370;2023-03-13T06:38:18;1.10;;;1.03;;
9072;SDS011;4572;41.642;25.370;2023-03-13T06:40:44;1.67;;;1.57;;
9072;SDS011;4572;41.642;25.370;2023-03-13T06:43:09;1.67;;;1.40;;
9072;SDS011;4572;41.642;25.370;2023-03-13T06:45:35;0.70;;;0.70;;
9072;SDS011;4572;41.642;25.370;2023-03-13T06:48:01;0.83;;;0.83;;
9072;SDS011;4572;41.642;25.370;2023-03-13T06:50:27;0.80;;;0.80;;
9072;SDS011;4572;41.642;25.370;2023-03-13T06:52:52;1.40;;;0.93;;
9072;SDS011;4572;41.642;25.370;2023-03-13T06:55:18;1.30;;;1.20;;
9072;SDS011;4572;41.642;25.370;2023-03-13T06:57:44;1.20;;;1.13;;
9072;SDS011;4572;41.642;25.370;2023-03-13T07:00:14;0.83;;;0.83;;
9072;SDS011;4572;41.642;25.370;2023-03-13T07:02:39;1.93;;;1.20;;
9072;SDS011;4572;41.642;25.370;2023-03-13T07:05:05;0.83;;;0.83;;
9072;SDS011;4572;41.642;25.370;2023-03-13T07:07:32;1.60;;;1.40;;
9072;SDS011;4572;41.642;25.370;2023-03-13T07:09:58;1.43;;;1.07;;
9072;SDS011;4572;41.642;25.370;2023-03-13T07:12:23;0.87;;;0.83;;
9072;SDS011;4572;41.642;25.370;2023-03-13T07:14:49;1.57;;;1.10;;
9072;SDS011;4572;41.642;25.370;2023-03-13T07:17:14;1.20;;;1.10;;
9072;SDS011;4572;41.642;25.370;2023-03-13T07:19:40;0.77;;;0.77;;
9072;SDS011;4572;41.642;25.370;2023-03-13T07:22:05;1.23;;;1.03;;
9072;SDS011;4572;41.642;25.370;2023-03-13T07:24:31;0.83;;;0.80;;
9072;SDS011;4572;41.642;25.370;2023-03-13T07:26:56;2.37;;;1.13;;
9072;SDS011;4572;41.642;25.370;2023-03-13T07:29:22;1.47;;;1.37;;
9072;SDS011;4572;41.642;25.370;2023-03-13T07:31:47;1.73;;;1.23;;
9072;SDS011;4572;41.642;25.370;2023-03-13T07:34:13;4.13;;;1.33;;
9072;SDS011;4572;41.642;25.370;2023-03-13T07:36:38;2.97;;;2.17;;
9072;SDS011;4572;41.642;25.370;2023-03-13T07:39:05;1.70;;;1.60;;
9072;SDS011;4572;41.642;25.370;2023-03-13T07:41:31;1.33;;;0.93;;
9072;SDS011;4572;41.642;25.370;2023-03-13T07:43:56;1.30;;;1.20;;
9072;SDS011;4572;41.642;25.370;2023-03-13T07:46:22;1.67;;;1.40;;
9072;SDS011;4572;41.642;25.370;2023-03-13T07:48:47;0.93;;;0.93;;
9072;SDS011;4572;41.642;25.370;2023-03-13T07:51:15;1.00;;;0.90;;
9072;SDS011;4572;41.642;25.370;2023-03-13T07:53:45;1.60;;;1.50;;
9072;SDS011;4572;41.642;25.370;2023-03-13T07:56:14;1.17;;;0.97;;
9072;SDS011;4572;41.642;25.370;2023-03-13T07:58:41;0.90;;;0.90;;
9072;SDS011;4572;41.642;25.370;2023-03-13T08:01:08;1.57;;;1.27;;
9072;SDS011;4572;41.642;25.370;2023-03-13T08:03:38;0.70;;;0.70;;
9072;SDS011;4572;41.642;25.370;2023-03-13T08:06:08;1.23;;;1.13;;
9072;SDS011;4572;41.642;25.370;2023-03-13T08:08:35;0.70;;;0.70;;
9072;SDS011;4572;41.642;25.370;2023-03-13T08:11:05;1.30;;;1.03;;
9072;SDS011;4572;41.642;25.370;2023-03-13T08:13:33;1.80;;;1.33;;
9072;SDS011;4572;41.642;25.370;2023-03-13T08:16:09;1.23;;;1.10;;
9072;SDS011;4572;41.642;25.370;2023-03-13T08:18:40;1.33;;;1.23;;
9072;SDS011;4572;41.642;25.370;2023-03-13T08:21:17;0.73;;;0.73;;
9072;SDS011;4572;41.642;25.370;2023-03-13T08:23:45;1.40;;;0.90;;
9072;SDS011;4572;41.642;25.370;2023-03-13T08:28:37;1.23;;;0.90;;
9072;SDS011;4572;41.642;25.370;2023-03-13T08:31:13;0.77;;;0.73;;
9072;SDS011;4572;41.642;25.370;2023-03-13T08:33:41;1.80;;;1.03;;
9072;SDS011;4572;41.642;25.370;2023-03-13T08:36:17;0.90;;;0.90;;
9072;SDS011;4572;41.642;25.370;2023-03-13T08:38:45;1.00;;;1.00;;
9072;SDS011;4572;41.642;25.370;2023-03-13T08:41:15;0.50;;;0.50;;
9072;SDS011;4572;41.642;25.370;2023-03-13T08:43:42;1.10;;;1.00;;
9072;SDS011;4572;41.642;25.370;2023-03-13T08:46:08;1.07;;;0.97;;
9072;SDS011;4572;41.642;25.370;2023-03-13T08:48:34;0.80;;;0.80;;
9072;SDS011;4572;41.642;25.370;2023-03-13T08:51:10;1.30;;;1.20;;
9072;SDS011;4572;41.642;25.370;2023-03-13T08:53:38;0.80;;;0.80;;
9072;SDS011;4572;41.642;25.370;2023-03-13T08:56:04;1.10;;;1.00;;
9072;SDS011;4572;41.642;25.370;2023-03-13T08:58:31;1.80;;;1.30;;
9072;SDS011;4572;41.642;25.370;2023-03-13T09:01:03;1.03;;;0.83;;
9072;SDS011;4572;41.642;25.370;2023-03-13T09:03:36;1.23;;;0.80;;
9072;SDS011;4572;41.642;25.370;2023-03-13T09:06:02;1.37;;;1.27;;
9072;SDS011;4572;41.642;25.370;2023-03-13T09:08:28;2.03;;;0.90;;
9072;SDS011;4572;41.642;25.370;2023-03-13T09:10:55;0.90;;;0.90;;
9072;SDS011;4572;41.642;25.370;2023-03-13T09:13:28;0.93;;;0.90;;
9072;SDS011;4572;41.642;25.370;2023-03-13T09:15:58;0.80;;;0.80;;
9072;SDS011;4572;41.642;25.370;2023-03-13T09:18:25;1.27;;;0.90;;
9072;SDS011;4572;41.642;25.370;2023-03-13T09:20:51;1.47;;;1.37;;
9072;SDS011;4572;41.642;25.370;2023-03-13T09:23:16;0.67;;;0.67;;
9072;SDS011;4572;41.642;25.370;2023-03-13T09:25:42;0.77;;;0.77;;
9072;SDS011;4572;41.642;25.370;2023-03-13T09:28:08;1.20;;;1.20;;
9072;SDS011;4572;41.642;25.370;2023-03-13T09:30:33;0.80;;;0.80;;
9072;SDS011;4572;41.642;25.370;2023-03-13T09:32:59;1.07;;;0.90;;
9072;SDS011;4572;41.642;25.370;2023-03-13T09:35:25;1.13;;;0.97;;
9072;SDS011;4572;41.642;25.370;2023-03-13T09:37:50;1.30;;;1.20;;
9072;SDS011;4572;41.642;25.370;2023-03-13T09:40:16;1.10;;;1.00;;
9072;SDS011;4572;41.642;25.370;2023-03-13T09:42:47;0.90;;;0.87;;
9072;SDS011;4572;41.642;25.370;2023-03-13T09:45:57;2.20;;;1.63;;
9072;SDS011;4572;41.642;25.370;2023-03-13T09:50:58;2.27;;;1.07;;
9072;SDS011;4572;41.642;25.370;2023-03-13T09:53:40;1.47;;;1.37;;
9072;SDS011;4572;41.642;25.370;2023-03-13T09:56:11;0.90;;;0.90;;
9072;SDS011;4572;41.642;25.370;2023-03-13T09:58:40;2.57;;;1.30;;
9072;SDS011;4572;41.642;25.370;2023-03-13T10:01:11;1.03;;;1.03;;
9072;SDS011;4572;41.642;25.370;2023-03-13T10:03:51;1.20;;;0.90;;
9072;SDS011;4572;41.642;25.370;2023-03-13T10:06:21;1.57;;;1.30;;
9072;SDS011;4572;41.642;25.370;2023-03-13T10:08:49;5.70;;;1.40;;
9072;SDS011;4572;41.642;25.370;2023-03-13T10:11:24;2.23;;;1.50;;
9072;SDS011;4572;41.642;25.370;2023-03-13T10:14:15;1.77;;;1.50;;
9072;SDS011;4572;41.642;25.370;2023-03-13T10:16:47;1.20;;;1.10;;
9072;SDS011;4572;41.642;25.370;2023-03-13T10:19:22;1.30;;;1.20;;
9072;SDS011;4572;41.642;25.370;2023-03-13T10:21:52;1.03;;;1.00;;
9072;SDS011;4572;41.642;25.370;2023-03-13T10:24:24;1.33;;;1.10;;
9072;SDS011;4572;41.642;25.370;2023-03-13T10:26:55;2.90;;;1.53;;
9072;SDS011;4572;41.642;25.370;2023-03-13T10:31:53;1.60;;;1.50;;
9072;SDS011;4572;41.642;25.370;2023-03-13T10:34:21;1.40;;;1.30;;
9072;SDS011;4572;41.642;25.370;2023-03-13T10:36:48;1.90;;;1.57;;
9072;SDS011;4572;41.642;25.370;2023-03-13T10:39:18;1.27;;;1.10;;
9072;SDS011;4572;41.642;25.370;2023-03-13T10:41:46;0.90;;;0.90;;
9072;SDS011;4572;41.642;25.370;2023-03-13T10:44:17;1.83;;;1.30;;
9072;SDS011;4572;41.642;25.370;2023-03-13T10:46:45;0.77;;;0.77;;
9072;SDS011;4572;41.642;25.370;2023-03-13T10:49:22;1.30;;;1.17;;
9072;SDS011;4572;41.642;25.370;2023-03-13T10:51:49;1.40;;;1.27;;
9072;SDS011;4572;41.642;25.370;2023-03-13T10:56:41;7.20;;;4.13;;
9072;SDS011;4572;41.642;25.370;2023-03-13T10:59:17;1.60;;;1.10;;
9072;SDS011;4572;41.642;25.370;2023-03-13T11:01:45;1.53;;;1.43;;
9072;SDS011;4572;41.642;25.370;2023-03-13T11:04:28;3.30;;;1.93;;
9072;SDS011;4572;41.642;25.370;2023-03-13T11:07:03;1.37;;;1.27;;
9072;SDS011;4572;41.642;25.370;2023-03-13T11:09:30;1.50;;;1.40;;
9072;SDS011;4572;41.642;25.370;2023-03-13T11:12:34;1.00;;;1.00;;
9072;SDS011;4572;41.642;25.370;2023-03-13T11:14:55;2.13;;;1.40;;
9072;SDS011;4572;41.642;25.370;2023-03-13T11:17:35;1.40;;;1.20;;
9072;SDS011;4572;41.642;25.370;2023-03-13T11:25:41;1.47;;;1.37;;
9072;SDS011;4572;41.642;25.370;2023-03-13T11:28:15;2.70;;;0.90;;
9072;SDS011;4572;41.642;25.370;2023-03-13T11:30:46;1.53;;;1.00;;
9072;SDS011;4572;41.642;25.370;2023-03-13T11:38:41;1.10;;;1.03;;
9072;SDS011;4572;41.642;25.370;2023-03-13T12:00:18;1.40;;;1.20;;
9072;SDS011;4572;41.642;25.370;2023-03-13T12:05:18;1.00;;;1.00;;
9072;SDS011;4572;41.642;25.370;2023-03-13T12:08:01;7.70;;;4.57;;
9072;SDS011;4572;41.642;25.370;2023-03-13T12:10:30;1.53;;;1.03;;
9072;SDS011;4572;41.642;25.370;2023-03-13T12:13:01;0.90;;;0.90;;
9072;SDS011;4572;41.642;25.370;2023-03-13T12:15:39;0.93;;;0.90;;
9072;SDS011;4572;41.642;25.370;2023-03-13T12:18:19;0.70;;;0.70;;
9072;SDS011;4572;41.642;25.370;2023-03-13T12:21:00;0.67;;;0.67;;
9072;SDS011;4572;41.642;25.370;2023-03-13T12:26:19;1.13;;;0.87;;
9072;SDS011;4572;41.642;25.370;2023-03-13T12:31:46;1.00;;;1.00;;
9072;SDS011;4572;41.642;25.370;2023-03-13T12:39:45;0.80;;;0.80;;
9072;SDS011;4572;41.642;25.370;2023-03-13T12:45:11;0.70;;;0.70;;
9072;SDS011;4572;41.642;25.370;2023-03-13T12:48:15;0.80;;;0.80;;
9072;SDS011;4572;41.642;25.370;2023-03-13T12:53:08;1.07;;;0.87;;
9072;SDS011;4572;41.642;25.370;2023-03-13T12:56:11;0.93;;;0.93;;
9072;SDS011;4572;41.642;25.370;2023-03-13T13:01:44;2.23;;;1.50;;
9072;SDS011;4572;41.642;25.370;2023-03-13T13:04:13;1.00;;;1.00;;
9072;SDS011;4572;41.642;25.370;2023-03-13T13:06:50;0.80;;;0.80;;
9072;SDS011;4572;41.642;25.370;2023-03-13T13:09:29;1.40;;;0.77;;
9072;SDS011;4572;41.642;25.370;2023-03-13T13:11:57;0.70;;;0.67;;
9072;SDS011;4572;41.642;25.370;2023-03-13T13:16:59;2.17;;;1.60;;
9072;SDS011;4572;41.642;25.370;2023-03-13T13:25:01;0.60;;;0.60;;
9072;SDS011;4572;41.642;25.370;2023-03-13T13:27:52;0.70;;;0.70;;
9072;SDS011;4572;41.642;25.370;2023-03-13T13:43:48;2.60;;;1.10;;
9072;SDS011;4572;41.642;25.370;2023-03-13T13:46:28;2.10;;;0.90;;
9072;SDS011;4572;41.642;25.370;2023-03-13T13:51:30;1.93;;;0.80;;
9072;SDS011;4572;41.642;25.370;2023-03-13T13:59:35;0.97;;;0.83;;
9072;SDS011;4572;41.642;25.370;2023-03-13T14:04:36;0.80;;;0.80;;
9072;SDS011;4572;41.642;25.370;2023-03-13T14:07:03;1.00;;;1.00;;
9072;SDS011;4572;41.642;25.370;2023-03-13T14:12:24;1.10;;;1.00;;
9072;SDS011;4572;41.642;25.370;2023-03-13T14:17:58;1.37;;;0.83;;
9072;SDS011;4572;41.642;25.370;2023-03-13T14:20:35;1.50;;;1.13;;
9072;SDS011;4572;41.642;25.370;2023-03-13T14:23:03;1.83;;;1.23;;
9072;SDS011;4572;41.642;25.370;2023-03-13T14:28:20;0.87;;;0.87;;
9072;SDS011;4572;41.642;25.370;2023-03-13T14:30:51;1.17;;;1.13;;
9072;SDS011;4572;41.642;25.370;2023-03-13T14:33:19;1.70;;;0.90;;
9072;SDS011;4572;41.642;25.370;2023-03-13T14:35:45;1.10;;;0.90;;
9072;SDS011;4572;41.642;25.370;2023-03-13T14:38:18;2.27;;;1.07;;
9072;SDS011;4572;41.642;25.370;2023-03-13T14:40:45;0.93;;;0.90;;
9072;SDS011;4572;41.642;25.370;2023-03-13T14:49:04;1.53;;;1.10;;
9072;SDS011;4572;41.642;25.370;2023-03-13T14:51:40;0.73;;;0.73;;
9072;SDS011;4572;41.642;25.370;2023-03-13T14:54:20;1.17;;;1.07;;
9072;SDS011;4572;41.642;25.370;2023-03-13T14:57:00;1.10;;;1.00;;
9072;SDS011;4572;41.642;25.370;2023-03-13T14:59:26;2.20;;;1.60;;
9072;SDS011;4572;41.642;25.370;2023-03-13T15:01:59;2.27;;;1.40;;
9072;SDS011;4572;41.642;25.370;2023-03-13T15:07:12;1.23;;;1.07;;
9072;SDS011;4572;41.642;25.370;2023-03-13T15:09:41;2.03;;;1.17;;
9072;SDS011;4572;41.642;25.370;2023-03-13T15:12:10;1.03;;;0.90;;
9072;SDS011;4572;41.642;25.370;2023-03-13T15:14:39;1.20;;;1.10;;
9072;SDS011;4572;41.642;25.370;2023-03-13T15:17:15;2.53;;;1.63;;
9072;SDS011;4572;41.642;25.370;2023-03-13T15:19:46;1.10;;;1.10;;
9072;SDS011;4572;41.642;25.370;2023-03-13T15:22:13;1.40;;;1.30;;
9072;SDS011;4572;41.642;25.370;2023-03-13T15:24:43;1.73;;;1.27;;
9072;SDS011;4572;41.642;25.370;2023-03-13T15:27:13;1.20;;;1.10;;
9072;SDS011;4572;41.642;25.370;2023-03-13T15:29:40;3.93;;;1.40;;
9072;SDS011;4572;41.642;25.370;2023-03-13T15:32:08;1.17;;;1.03;;
9072;SDS011;4572;41.642;25.370;2023-03-13T15:34:36;2.53;;;1.80;;
9072;SDS011;4572;41.642;25.370;2023-03-13T15:37:01;1.20;;;1.10;;
9072;SDS011;4572;41.642;25.370;2023-03-13T15:39:27;2.37;;;1.73;;
9072;SDS011;4572;41.642;25.370;2023-03-13T15:41:52;1.63;;;1.30;;
9072;SDS011;4572;41.642;25.370;2023-03-13T15:44:18;4.97;;;3.20;;
9072;SDS011;4572;41.642;25.370;2023-03-13T15:46:44;1.80;;;1.70;;
9072;SDS011;4572;41.642;25.370;2023-03-13T15:49:10;1.10;;;1.00;;
9072;SDS011;4572;41.642;25.370;2023-03-13T15:51:36;0.70;;;0.70;;
9072;SDS011;4572;41.642;25.370;2023-03-13T15:54:02;0.60;;;0.60;;
9072;SDS011;4572;41.642;25.370;2023-03-13T15:56:28;0.77;;;0.73;;
9072;SDS011;4572;41.642;25.370;2023-03-13T15:58:56;1.17;;;0.90;;
9072;SDS011;4572;41.642;25.370;2023-03-13T16:01:21;0.80;;;0.80;;
9072;SDS011;4572;41.642;25.370;2023-03-13T16:03:47;1.63;;;1.30;;
9072;SDS011;4572;41.642;25.370;2023-03-13T16:06:17;1.27;;;1.10;;
9072;SDS011;4572;41.642;25.370;2023-03-13T16:08:44;0.80;;;0.80;;
9072;SDS011;4572;41.642;25.370;2023-03-13T16:11:12;1.57;;;1.10;;
9072;SDS011;4572;41.642;25.370;2023-03-13T16:13:38;2.27;;;1.43;;
9072;SDS011;4572;41.642;25.370;2023-03-13T16:16:16;1.10;;;1.00;;
9072;SDS011;4572;41.642;25.370;2023-03-13T16:18:42;1.47;;;0.93;;
9072;SDS011;4572;41.642;25.370;2023-03-13T16:21:08;0.80;;;0.80;;
9072;SDS011;4572;41.642;25.370;2023-03-13T16:23:40;1.40;;;1.30;;
9072;SDS011;4572;41.642;25.370;2023-03-13T16:26:08;0.90;;;0.90;;
9072;SDS011;4572;41.642;25.370;2023-03-13T16:28:38;1.73;;;1.63;;
9072;SDS011;4572;41.642;25.370;2023-03-13T16:31:03;1.47;;;1.20;;
9072;SDS011;4572;41.642;25.370;2023-03-13T16:33:29;1.30;;;1.20;;
9072;SDS011;4572;41.642;25.370;2023-03-13T16:35:55;1.27;;;1.03;;
9072;SDS011;4572;41.642;25.370;2023-03-13T16:38:20;2.23;;;1.60;;
9072;SDS011;4572;41.642;25.370;2023-03-13T16:40:46;3.77;;;1.50;;
9072;SDS011;4572;41.642;25.370;2023-03-13T16:43:12;2.07;;;1.70;;
9072;SDS011;4572;41.642;25.370;2023-03-13T16:45:37;3.57;;;2.63;;
9072;SDS011;4572;41.642;25.370;2023-03-13T16:48:02;4.03;;;3.03;;
9072;SDS011;4572;41.642;25.370;2023-03-13T16:50:32;6.97;;;2.90;;
9072;SDS011;4572;41.642;25.370;2023-03-13T16:53:00;6.53;;;4.50;;
9072;SDS011;4572;41.642;25.370;2023-03-13T16:55:26;9.93;;;5.53;;
9072;SDS011;4572;41.642;25.370;2023-03-13T16:58:00;14.00;;;8.10;;
9072;SDS011;4572;41.642;25.370;2023-03-13T17:00:26;14.83;;;9.37;;
9072;SDS011;4572;41.642;25.370;2023-03-13T17:02:53;12.60;;;7.40;;
9072;SDS011;4572;41.642;25.370;2023-03-13T17:05:20;6.60;;;4.40;;
9072;SDS011;4572;41.642;25.370;2023-03-13T17:07:46;3.30;;;2.67;;
9072;SDS011;4572;41.642;25.370;2023-03-13T17:10:20;3.60;;;2.63;;
9072;SDS011;4572;41.642;25.370;2023-03-13T17:12:56;3.33;;;2.23;;